createdAt,value
2022-12-05T00:01:34.678Z,84.20
2022-12-05T00:04:06.471Z,84.09
2022-12-05T00:06:35.374Z,84.01
2022-12-05T00:09:05.342Z,84.04
2022-12-05T00:11:36.270Z,84.01
2022-12-05T00:14:06.920Z,84.02
2022-12-05T00:16:38.526Z,83.98
2022-12-05T00:19:08.675Z,84.00
2022-12-05T00:21:37.335Z,84.00
2022-12-05T00:24:08.428Z,84.01
2022-12-05T00:26:36.191Z,84.07
2022-12-05T00:29:04.508Z,84.04
2022-12-05T00:31:32.431Z,84.08
2022-12-05T00:34:02.585Z,84.16
2022-12-05T00:36:33.618Z,84.26
2022-12-05T00:39:05.905Z,84.25
2022-12-05T00:41:33.667Z,84.29
2022-12-05T00:44:03.516Z,84.37
2022-12-05T00:46:33.454Z,84.43
2022-12-05T00:49:04.008Z,84.48
2022-12-05T00:51:39.114Z,84.53
2022-12-05T00:54:11.458Z,84.55
2022-12-05T00:56:39.810Z,84.62
2022-12-05T00:59:08.659Z,84.60
2022-12-05T01:01:40.645Z,84.69
2022-12-05T01:04:12.456Z,84.67
2022-12-05T01:06:41.453Z,84.71
2022-12-05T01:09:13.081Z,84.80
2022-12-05T01:11:41.826Z,84.86
2022-12-05T01:14:12.681Z,84.86
2022-12-05T01:16:43.492Z,84.93
2022-12-05T01:19:22.081Z,85.04
2022-12-05T01:21:50.615Z,85.00
2022-12-05T01:24:19.910Z,85.02
2022-12-05T01:26:48.284Z,85.03
2022-12-05T01:29:19.610Z,85.03
2022-12-05T01:31:48.131Z,85.00
2022-12-05T01:34:18.115Z,85.02
2022-12-05T01:36:45.912Z,85.13
2022-12-05T01:39:13.596Z,85.18
2022-12-05T01:41:49.347Z,85.29
2022-12-05T01:44:25.004Z,85.39
2022-12-05T01:46:53.991Z,85.41
2022-12-05T01:49:33.043Z,85.40
2022-12-05T01:52:20.895Z,85.44
2022-12-05T01:54:51.759Z,85.51
2022-12-05T01:57:19.426Z,85.55
2022-12-05T01:59:55.757Z,85.61
2022-12-05T02:02:24.013Z,85.64
2022-12-05T02:05:00.072Z,85.73
2022-12-05T02:07:28.518Z,85.76
2022-12-05T02:09:56.847Z,85.77
2022-12-05T02:12:25.447Z,85.77
2022-12-05T02:15:07.634Z,85.72
2022-12-05T02:18:14.482Z,85.63
2022-12-05T02:21:17.111Z,85.58
2022-12-05T02:24:16.646Z,85.59
2022-12-05T02:27:00.014Z,85.62
2022-12-05T02:30:00.924Z,85.65
2022-12-05T02:32:49.373Z,85.66
2022-12-05T02:35:42.203Z,85.69
2022-12-05T02:38:33.663Z,85.71
2022-12-05T02:41:06.679Z,85.72
2022-12-05T02:43:42.149Z,85.74
2022-12-05T02:46:14.633Z,85.78
2022-12-05T02:48:45.504Z,85.78
2022-12-05T02:51:17.866Z,85.70
2022-12-05T02:53:48.194Z,85.70
2022-12-05T02:56:16.333Z,85.70
2022-12-05T02:58:55.693Z,85.70
2022-12-05T03:01:27.676Z,85.72
2022-12-05T03:03:58.178Z,85.74
2022-12-05T03:06:42.595Z,85.75
2022-12-05T03:09:18.739Z,85.79
2022-12-05T03:11:54.844Z,85.77
2022-12-05T03:14:39.768Z,85.77
2022-12-05T03:17:11.843Z,85.80
2022-12-05T03:20:02.140Z,85.87
2022-12-05T03:22:49.806Z,85.92
2022-12-05T03:25:18.144Z,86.09
2022-12-05T03:28:07.885Z,86.12
2022-12-05T03:30:38.473Z,86.17
2022-12-05T03:33:26.492Z,86.20
2022-12-05T03:36:08.285Z,86.17
2022-12-05T03:38:57.841Z,86.16
2022-12-05T03:42:00.755Z,86.21
2022-12-05T03:44:51.829Z,86.16
2022-12-05T03:47:46.049Z,86.17
2022-12-05T03:50:27.229Z,86.09
2022-12-05T03:53:19.506Z,86.05
2022-12-05T03:55:38.840Z,86.09
2022-12-05T03:58:14.863Z,86.08
2022-12-05T04:00:46.081Z,86.06
2022-12-05T04:03:25.047Z,86.05
2022-12-05T04:05:59.610Z,86.05
2022-12-05T04:08:35.728Z,86.02
2022-12-05T04:11:07.594Z,86.05
2022-12-05T04:13:49.575Z,85.98
2022-12-05T04:16:47.508Z,86.02
2022-12-05T04:19:26.592Z,85.92
2022-12-05T04:21:56.959Z,85.98
2022-12-05T04:24:49.718Z,85.96
2022-12-05T04:27:38.980Z,85.98
2022-12-05T04:30:11.733Z,86.02
2022-12-05T04:33:04.766Z,86.08
2022-12-05T04:35:37.901Z,86.10
2022-12-05T04:38:16.902Z,86.05
2022-12-05T04:40:52.834Z,86.01
2022-12-05T04:43:22.925Z,86.04
2022-12-05T04:45:52.876Z,86.05
2022-12-05T04:48:24.035Z,86.12
2022-12-05T04:50:54.076Z,86.16
2022-12-05T04:53:26.138Z,86.10
2022-12-05T04:55:57.680Z,86.05
2022-12-05T04:58:27.903Z,86.06
2022-12-05T05:01:21.641Z,86.14
2022-12-05T05:04:00.789Z,86.23
2022-12-05T05:06:30.141Z,86.40
2022-12-05T05:08:58.579Z,86.44
2022-12-05T05:11:30.290Z,86.43
2022-12-05T05:13:59.627Z,86.49
2022-12-05T05:16:33.215Z,86.48
2022-12-05T05:19:03.698Z,86.44
2022-12-05T05:21:35.691Z,86.44
2022-12-05T05:24:04.758Z,86.41
2022-12-05T05:26:40.107Z,86.38
2022-12-05T05:29:09.369Z,86.37
2022-12-05T05:31:38.719Z,86.42
2022-12-05T05:34:09.853Z,86.39
2022-12-05T05:36:38.685Z,86.33
2022-12-05T05:39:11.730Z,86.37
2022-12-05T05:41:41.293Z,86.45
2022-12-05T05:44:09.291Z,86.42
2022-12-05T05:46:37.319Z,86.32
2022-12-05T05:49:07.135Z,86.35
2022-12-05T05:51:35.041Z,86.33
2022-12-05T05:54:03.011Z,86.22
2022-12-05T05:56:30.848Z,86.12
2022-12-05T05:59:02.826Z,86.10
2022-12-05T06:01:31.419Z,86.11
2022-12-05T06:03:59.249Z,86.10
2022-12-05T06:06:27.613Z,86.04
2022-12-05T06:08:55.290Z,86.08
2022-12-05T06:11:27.118Z,86.13
2022-12-05T06:13:57.188Z,86.19
2022-12-05T06:16:25.191Z,86.27
2022-12-05T06:18:54.079Z,86.36
2022-12-05T06:21:22.838Z,86.39
2022-12-05T06:23:50.954Z,86.40
2022-12-05T06:26:21.573Z,86.48
2022-12-05T06:28:49.266Z,86.52
2022-12-05T06:31:21.826Z,86.58
2022-12-05T06:33:49.611Z,86.61
2022-12-05T06:36:20.791Z,86.65
2022-12-05T06:38:48.798Z,86.67
2022-12-05T06:41:19.930Z,86.72
2022-12-05T06:43:48.965Z,86.78
2022-12-05T06:46:16.734Z,86.76
2022-12-05T06:48:44.808Z,86.75
2022-12-05T06:51:16.171Z,86.70
2022-12-05T06:53:44.652Z,86.80
2022-12-05T06:56:16.331Z,86.86
2022-12-05T06:58:47.633Z,86.88
2022-12-05T07:01:42.238Z,86.83
2022-12-05T07:04:19.764Z,86.90
2022-12-05T07:06:51.141Z,86.85
2022-12-05T07:09:24.972Z,86.81
2022-12-05T07:11:52.899Z,86.70
2022-12-05T07:16:51.175Z,86.67
2022-12-05T07:19:18.774Z,86.67
2022-12-05T07:21:46.574Z,86.63
2022-12-05T07:24:14.445Z,86.44
2022-12-05T07:26:42.200Z,86.42
2022-12-05T07:29:10.315Z,86.57
2022-12-05T07:31:38.265Z,86.64
2022-12-05T07:34:05.963Z,86.58
2022-12-05T07:36:34.663Z,86.58
2022-12-05T07:39:02.420Z,86.41
2022-12-05T07:41:33.221Z,86.27
2022-12-05T07:44:02.885Z,86.08
2022-12-05T07:46:30.622Z,85.91
2022-12-05T07:48:58.548Z,85.71
2022-12-05T07:51:26.293Z,85.56
2022-12-05T07:53:53.995Z,85.52
2022-12-05T07:56:22.392Z,85.45
2022-12-05T07:58:51.076Z,85.39
2022-12-05T08:01:22.924Z,85.21
2022-12-05T08:03:52.996Z,85.19
2022-12-05T08:06:24.593Z,85.20
2022-12-05T08:08:53.876Z,85.14
2022-12-05T08:11:30.982Z,84.96
2022-12-05T08:13:59.150Z,84.89
2022-12-05T08:16:30.017Z,85.23
2022-12-05T08:19:01.112Z,84.81
2022-12-05T08:21:29.308Z,84.85
2022-12-05T08:23:57.417Z,84.66
2022-12-05T08:26:29.701Z,84.75
2022-12-05T08:29:02.079Z,84.47
2022-12-05T08:31:34.175Z,83.61
2022-12-05T08:34:02.535Z,83.70
2022-12-05T08:36:31.345Z,83.55
2022-12-05T08:39:04.326Z,83.34
2022-12-05T08:41:33.459Z,82.97
2022-12-05T08:44:04.963Z,82.32
2022-12-05T08:46:35.692Z,82.15
2022-12-05T08:49:05.204Z,82.11
2022-12-05T08:51:33.355Z,81.46
2022-12-05T08:54:05.502Z,80.78
2022-12-05T08:56:33.740Z,80.58
2022-12-05T08:59:05.762Z,79.91
2022-12-05T09:01:32.951Z,79.81
2022-12-05T09:04:03.508Z,80.13
2022-12-05T09:06:32.609Z,79.83
2022-12-05T09:09:05.185Z,80.16
2022-12-05T09:11:37.270Z,79.73
2022-12-05T09:14:04.908Z,79.85
2022-12-05T09:16:39.253Z,79.90
2022-12-05T09:19:12.729Z,79.72
2022-12-05T09:21:41.633Z,79.30
2022-12-05T09:24:12.030Z,79.35
2022-12-05T09:26:41.052Z,79.23
2022-12-05T09:29:16.174Z,78.97
2022-12-05T09:31:41.809Z,78.95
2022-12-05T09:34:10.049Z,79.07
2022-12-05T09:36:38.031Z,78.86
2022-12-05T09:39:09.638Z,78.81
2022-12-05T09:42:19.370Z,78.42
2022-12-05T09:45:10.989Z,78.33
2022-12-05T09:48:09.496Z,78.29
2022-12-05T09:50:48.497Z,77.89
2022-12-05T09:53:30.471Z,77.20
2022-12-05T09:56:03.841Z,77.46
2022-12-05T09:58:54.189Z,77.58
2022-12-05T10:01:32.921Z,77.50
2022-12-05T10:04:34.583Z,77.34
2022-12-05T10:07:23.652Z,76.79
2022-12-05T10:09:59.739Z,76.77
2022-12-05T10:12:52.496Z,76.64
2022-12-05T10:15:54.427Z,76.67
2022-12-05T10:18:49.933Z,76.27
2022-12-05T10:22:01.400Z,76.13
2022-12-05T10:24:40.055Z,76.26
2022-12-05T10:27:12.432Z,76.12
2022-12-05T10:30:05.897Z,76.10
2022-12-05T10:32:39.167Z,75.87
2022-12-05T10:35:18.241Z,75.84
2022-12-05T10:37:53.206Z,75.05
2022-12-05T10:40:21.276Z,74.97
2022-12-05T10:42:50.643Z,75.13
2022-12-05T10:45:23.977Z,74.81
2022-12-05T10:47:57.209Z,75.03
2022-12-05T10:50:36.169Z,74.93
2022-12-05T10:53:06.488Z,74.34
2022-12-05T10:56:00.099Z,74.00
2022-12-05T10:58:24.157Z,73.88
2022-12-05T11:00:59.121Z,73.90
2022-12-05T11:03:41.924Z,72.76
2022-12-05T11:06:26.933Z,72.56
2022-12-05T11:09:14.706Z,72.35
2022-12-05T11:11:46.042Z,72.29
2022-12-05T11:14:26.456Z,71.65
2022-12-05T11:16:57.719Z,71.98
2022-12-05T11:19:33.347Z,71.43
2022-12-05T11:22:02.997Z,71.17
2022-12-05T11:24:34.630Z,71.36
2022-12-05T11:27:23.073Z,71.08
2022-12-05T11:30:15.984Z,71.16
2022-12-05T11:32:43.562Z,71.01
2022-12-05T11:35:26.025Z,70.53
2022-12-05T11:38:02.500Z,70.78
2022-12-05T11:40:54.074Z,70.39
2022-12-05T11:44:03.713Z,69.96
2022-12-05T11:46:45.598Z,70.42
2022-12-05T11:49:55.125Z,70.13
2022-12-05T11:53:12.992Z,70.02
2022-12-05T11:55:58.337Z,69.84
2022-12-05T11:58:54.423Z,69.76
2022-12-05T12:02:18.795Z,69.73
2022-12-05T12:05:13.000Z,69.92
2022-12-05T12:07:58.359Z,70.17
2022-12-05T12:10:57.482Z,70.11
2022-12-05T12:13:45.215Z,70.32
2022-12-05T12:16:36.668Z,70.22
2022-12-05T12:19:28.217Z,70.15
2022-12-05T12:22:30.445Z,70.36
2022-12-05T12:25:33.455Z,70.34
2022-12-05T12:28:21.816Z,70.59
2022-12-05T12:30:57.858Z,70.85
2022-12-05T12:33:46.213Z,70.89
2022-12-05T12:36:43.919Z,70.77
2022-12-05T12:39:22.585Z,70.66
2022-12-05T12:42:23.518Z,70.58
2022-12-05T12:45:26.154Z,70.54
2022-12-05T12:48:39.020Z,70.48
2022-12-05T12:51:11.755Z,70.58
2022-12-05T12:54:06.360Z,70.83
2022-12-05T12:57:10.649Z,70.94
2022-12-05T13:00:13.126Z,70.88
2022-12-05T13:02:51.064Z,70.88
2022-12-05T13:05:36.383Z,70.78
2022-12-05T13:08:35.153Z,70.74
2022-12-05T13:11:08.570Z,70.79
2022-12-05T13:13:43.793Z,70.89
2022-12-05T13:16:19.347Z,70.98
2022-12-05T13:18:47.111Z,71.00
2022-12-05T13:21:15.177Z,70.94
2022-12-05T13:23:49.916Z,70.96
2022-12-05T13:26:18.159Z,70.86
2022-12-05T13:28:56.965Z,70.87
2022-12-05T13:31:45.534Z,70.83
2022-12-05T13:34:40.389Z,70.81
2022-12-05T13:37:39.830Z,71.05
2022-12-05T13:40:51.260Z,71.20
2022-12-05T13:43:23.669Z,71.15
2022-12-05T13:46:09.126Z,71.12
2022-12-05T13:48:42.510Z,71.07
2022-12-05T13:51:16.150Z,71.07
2022-12-05T13:53:52.750Z,71.07
2022-12-05T13:56:28.105Z,71.17
2022-12-05T13:58:57.906Z,71.28
2022-12-05T14:01:50.356Z,71.35
2022-12-05T14:04:50.179Z,71.28
2022-12-05T14:07:41.408Z,71.33
2022-12-05T14:10:14.942Z,71.38
2022-12-05T14:12:53.794Z,71.33
2022-12-05T14:15:31.818Z,71.33
2022-12-05T14:18:30.368Z,71.27
2022-12-05T14:21:16.768Z,71.18
2022-12-05T14:24:25.326Z,71.12
2022-12-05T14:27:13.773Z,71.15
2022-12-05T14:30:30.143Z,71.16
2022-12-05T14:33:01.769Z,71.23
2022-12-05T14:35:45.670Z,71.26
2022-12-05T14:38:29.316Z,71.34
2022-12-05T14:41:13.074Z,71.48
2022-12-05T14:43:42.464Z,71.52
2022-12-05T14:46:25.534Z,71.56
2022-12-05T14:48:55.661Z,71.61
2022-12-05T14:51:38.095Z,71.69
2022-12-05T14:54:18.010Z,71.73
2022-12-05T14:57:08.727Z,71.87
2022-12-05T14:59:56.370Z,71.96
2022-12-05T15:02:38.411Z,72.02
2022-12-05T15:05:24.339Z,72.07
2022-12-05T15:07:56.905Z,72.13
2022-12-05T15:10:37.854Z,72.22
2022-12-05T15:13:20.314Z,72.29
2022-12-05T15:16:14.640Z,72.41
2022-12-05T15:18:57.235Z,72.50
2022-12-05T15:21:47.209Z,72.61
2022-12-05T15:24:21.213Z,72.67
2022-12-05T15:26:58.915Z,72.78
2022-12-05T15:29:32.001Z,72.84
2022-12-05T15:32:08.350Z,72.91
2022-12-05T15:34:43.486Z,72.96
2022-12-05T15:37:25.813Z,73.08
2022-12-05T15:40:13.739Z,73.15
2022-12-05T15:42:48.295Z,73.23
2022-12-05T15:45:29.044Z,73.30
2022-12-05T15:48:11.419Z,73.26
2022-12-05T15:50:47.444Z,73.26
2022-12-05T15:53:30.064Z,73.33
2022-12-05T15:56:23.810Z,73.43
2022-12-05T15:59:03.231Z,73.49
2022-12-05T16:01:37.310Z,73.54
2022-12-05T16:04:37.275Z,73.60
2022-12-05T16:07:09.513Z,73.63
2022-12-05T16:09:41.860Z,73.71
2022-12-05T16:12:27.512Z,73.81
2022-12-05T16:15:01.623Z,73.88
2022-12-05T16:17:40.703Z,74.01
2022-12-05T16:20:29.117Z,74.12
2022-12-05T16:23:05.909Z,74.21
2022-12-05T16:25:36.697Z,74.33
2022-12-05T16:28:16.182Z,74.42
2022-12-05T16:31:01.834Z,74.48
2022-12-05T16:33:32.068Z,74.59
2022-12-05T16:36:10.888Z,74.70
2022-12-05T16:38:40.483Z,74.81
2022-12-05T16:41:08.930Z,74.93
2022-12-05T16:43:42.208Z,75.04
2022-12-05T16:46:20.249Z,75.19
2022-12-05T16:49:10.419Z,75.31
2022-12-05T16:51:45.658Z,75.47
2022-12-05T16:54:15.048Z,75.60
2022-12-05T16:56:42.924Z,75.68
2022-12-05T16:59:16.258Z,75.83
2022-12-05T17:01:44.472Z,75.93
2022-12-05T17:04:12.460Z,75.98
2022-12-05T17:06:42.500Z,76.08
2022-12-05T17:09:10.508Z,76.17
2022-12-05T17:11:43.029Z,76.30
2022-12-05T17:14:16.276Z,76.40
2022-12-05T17:16:45.033Z,76.37
2022-12-05T17:19:13.737Z,76.38
2022-12-05T17:21:43.384Z,76.45
2022-12-05T17:24:18.759Z,76.50
2022-12-05T17:26:47.296Z,76.62
2022-12-05T17:29:14.970Z,76.68
2022-12-05T17:31:43.009Z,76.69
2022-12-05T17:34:18.186Z,76.72
2022-12-05T17:36:46.196Z,76.79
2022-12-05T17:39:13.983Z,76.89
2022-12-05T17:41:42.260Z,77.01
2022-12-05T17:44:14.238Z,77.11
2022-12-05T17:46:48.168Z,77.18
2022-12-05T17:49:25.634Z,77.24
2022-12-05T17:52:21.497Z,77.34
2022-12-05T17:54:39.625Z,77.43
2022-12-05T17:57:07.364Z,77.51
2022-12-05T17:59:35.654Z,77.61
2022-12-05T18:02:06.195Z,77.72
2022-12-05T18:04:34.396Z,77.83
2022-12-05T18:07:05.538Z,77.95
2022-12-05T18:09:35.384Z,78.15
2022-12-05T18:12:03.781Z,78.33
2022-12-05T18:14:33.478Z,78.49
2022-12-05T18:17:03.367Z,78.61
2022-12-05T18:19:31.428Z,78.86
2022-12-05T18:21:59.439Z,78.77
2022-12-05T18:24:28.375Z,78.87
2022-12-05T18:26:56.449Z,78.93
2022-12-05T18:29:24.982Z,78.95
2022-12-05T18:31:53.267Z,79.03
2022-12-05T18:34:21.576Z,79.14
2022-12-05T18:36:49.858Z,79.15
2022-12-05T18:39:18.307Z,79.19
2022-12-05T18:41:47.970Z,79.28
2022-12-05T18:44:19.141Z,79.38
2022-12-05T18:46:47.085Z,79.46
2022-12-05T18:49:15.229Z,79.59
2022-12-05T18:51:47.759Z,79.68
2022-12-05T18:54:17.658Z,79.84
2022-12-05T18:56:49.837Z,79.98
2022-12-05T18:59:20.627Z,80.07
2022-12-05T19:01:50.524Z,80.20
2022-12-05T19:04:21.058Z,80.34
2022-12-05T19:06:58.744Z,80.38
2022-12-05T19:09:30.445Z,80.41
2022-12-05T19:12:00.635Z,80.42
2022-12-05T19:14:32.099Z,80.44
2022-12-05T19:17:02.142Z,80.43
2022-12-05T19:19:30.689Z,80.57
2022-12-05T19:21:58.795Z,80.63
2022-12-05T19:24:27.890Z,80.65
2022-12-05T19:26:56.279Z,80.67
2022-12-05T19:29:24.337Z,80.73
2022-12-05T19:31:52.891Z,80.84
2022-12-05T19:34:22.014Z,80.92
2022-12-05T19:36:51.336Z,80.90
2022-12-05T19:39:26.722Z,80.98
2022-12-05T19:41:56.884Z,80.99
2022-12-05T19:44:26.625Z,80.96
2022-12-05T19:46:54.676Z,81.04
2022-12-05T19:49:23.178Z,81.15
2022-12-05T19:51:52.329Z,81.17
2022-12-05T19:54:22.094Z,81.34
2022-12-05T19:56:51.466Z,81.34
2022-12-05T19:59:19.656Z,81.32
2022-12-05T20:01:47.670Z,81.33
2022-12-05T20:04:16.917Z,81.41
2022-12-05T20:06:50.160Z,81.48
2022-12-05T20:09:21.748Z,81.51
2022-12-05T20:11:55.558Z,81.53
2022-12-05T20:14:25.124Z,81.78
2022-12-05T20:16:53.927Z,81.75
2022-12-05T20:19:23.729Z,81.68
2022-12-05T20:21:52.300Z,81.68
2022-12-05T20:24:20.236Z,81.69
2022-12-05T20:26:49.031Z,81.71
2022-12-05T20:29:16.670Z,81.64
2022-12-05T20:31:47.497Z,81.60
2022-12-05T20:34:17.202Z,81.59
2022-12-05T20:36:51.826Z,81.66
2022-12-05T20:39:20.144Z,81.65
2022-12-05T20:41:49.963Z,81.73
2022-12-05T20:44:20.928Z,81.83
2022-12-05T20:46:50.584Z,81.89
2022-12-05T20:49:20.128Z,81.95
2022-12-05T20:51:50.198Z,82.11
2022-12-05T20:54:27.782Z,82.09
2022-12-05T20:56:58.252Z,82.08
2022-12-05T20:59:25.910Z,82.11
2022-12-05T21:01:53.950Z,82.13
2022-12-05T21:04:21.835Z,82.19
2022-12-05T21:06:49.753Z,82.29
2022-12-05T21:09:25.191Z,82.33
2022-12-05T21:11:56.527Z,82.30
2022-12-05T21:14:24.809Z,82.33
2022-12-05T21:16:53.237Z,82.33
2022-12-05T21:19:21.137Z,82.29
2022-12-05T21:21:53.083Z,82.33
2022-12-05T21:24:22.783Z,82.31
2022-12-05T21:26:51.382Z,82.44
2022-12-05T21:29:19.466Z,82.53
2022-12-05T21:31:50.326Z,82.57
2022-12-05T21:34:21.062Z,82.65
2022-12-05T21:36:49.542Z,82.74
2022-12-05T21:39:17.338Z,82.78
2022-12-05T21:41:45.480Z,82.83
2022-12-05T21:44:16.654Z,82.91
2022-12-05T21:46:44.426Z,83.02
2022-12-05T21:49:12.695Z,83.02
2022-12-05T21:51:40.842Z,83.10
2022-12-05T21:54:08.910Z,83.12
2022-12-05T21:56:38.435Z,83.19
2022-12-05T21:59:06.200Z,83.24
2022-12-05T22:01:34.332Z,83.26
2022-12-05T22:04:02.927Z,83.31
2022-12-05T22:06:33.008Z,83.43
2022-12-05T22:09:01.092Z,83.46
2022-12-05T22:11:29.579Z,83.46
2022-12-05T22:13:57.822Z,83.51
2022-12-05T22:16:32.785Z,83.52
2022-12-05T22:18:57.008Z,83.60
2022-12-05T22:21:26.580Z,83.64
2022-12-05T22:23:54.427Z,83.70
2022-12-05T22:26:25.764Z,83.86
2022-12-05T22:28:56.713Z,83.85
2022-12-05T22:31:24.694Z,83.87
2022-12-05T22:33:52.640Z,83.92
2022-12-05T22:36:21.051Z,83.94
2022-12-05T22:38:49.421Z,83.96
2022-12-05T22:41:21.427Z,84.01
2022-12-05T22:43:56.335Z,84.17
2022-12-05T22:46:26.024Z,84.20
2022-12-05T22:48:54.354Z,84.27
2022-12-05T22:51:23.145Z,84.39
2022-12-05T22:53:52.575Z,84.41
2022-12-05T22:56:22.982Z,84.49
2022-12-05T22:58:54.716Z,84.57
2022-12-05T23:01:32.265Z,84.64
2022-12-05T23:04:08.860Z,84.66
2022-12-05T23:06:38.348Z,84.71
2022-12-05T23:09:09.171Z,84.81
2022-12-05T23:11:37.809Z,84.84
2022-12-05T23:14:07.731Z,84.84
2022-12-05T23:16:36.940Z,84.83
2022-12-05T23:19:05.844Z,84.86
2022-12-05T23:21:39.225Z,84.84
2022-12-05T23:24:10.971Z,84.84
2022-12-05T23:26:44.945Z,84.90
2022-12-05T23:29:14.066Z,84.91
2022-12-05T23:31:43.206Z,84.98
2022-12-05T23:34:11.437Z,85.02
2022-12-05T23:36:39.540Z,84.96
2022-12-05T23:39:07.174Z,84.96
2022-12-05T23:41:34.925Z,85.09
2022-12-05T23:44:03.437Z,84.96
2022-12-05T23:46:31.255Z,84.99
2022-12-05T23:48:58.983Z,84.99
2022-12-05T23:51:29.769Z,85.05
2022-12-05T23:54:01.100Z,85.06
2022-12-05T23:56:32.858Z,85.10
2022-12-05T23:59:03.368Z,85.16
